Hopewell, New Jersey
Current Conditions -  °F | °C
As of 1:53 AM on Saturday 25 Oct 2014 (Local Time) from KTTN Reporting Station
Clear Clear  
Wind Chill: 53°   Ceiling: Unl
Heat Index: 53°   Visibility: 10mi
Dew Point: 34°   Wind: 0mph
Humidity: 48%   Direction: NA
Pressure: 29.88"   Gusts: NA
Location:  40.39°N, 74.76°W
Report Text: KTTN 250553Z AUTO 00000KT 10SM CLR 12/01 A2988 RMK AO2 SLP113 T01170011 10172 20117 53008
Loading
Personal Weather Stations






























Interactive Weather Map
Tropical Storm Tracking
New forecast layout! Learn more

10-Day Weather Forecast

Advertisements
Track Severe Weather on mobile